Time;durP1;ratioP1;P1;durP2;ratioP2;P2;SDS_P1;SDS_P2;PMS_P1;PMS_P2;Temp;Humidity;BMP_temperature;BMP_pressure;BME280_temperature;BME280_humidity;BME280_pressure;Samples;Min_cycle;Max_cycle;Signal;HPM_P1;HPM_P2
2022/12/21 00:01:10;;;;;;;137.45;34.05;;;7.10;99.90;;;;;;5094560;27;20035;-47
2022/12/21 00:03:36;;;;;;;407.92;44.75;;;7.10;99.90;;;;;;5095979;28;20167;-45
2022/12/21 00:06:05;;;;;;;463.27;44.33;;;7.10;99.90;;;;;;5097286;27;20046;-44
2022/12/21 00:08:35;;;;;;;463.98;44.55;;;6.90;99.90;;;;;;5096760;27;20117;-45
2022/12/21 00:11:01;;;;;;;603.58;49.80;;;8.90;99.90;;;;;;5095162;27;20055;-44
2022/12/21 00:13:27;;;;;;;483.02;44.35;;;6.90;99.90;;;;;;5096737;28;20413;-47
2022/12/21 00:16:08;;;;;;;386.45;38.38;;;8.20;99.90;;;;;;5097332;27;20382;-46
2022/12/21 00:18:35;;;;;;;437.90;42.63;;;6.80;99.90;;;;;;5096166;27;20096;-45
2022/12/21 00:21:04;;;;;;;479.27;41.70;;;7.50;99.90;;;;;;5096188;27;20658;-44
2022/12/21 00:23:31;;;;;;;581.30;48.50;;;5.50;99.90;;;;;;5096384;27;20106;-48
2022/12/21 00:26:02;;;;;;;617.80;50.55;;;7.60;99.90;;;;;;5097092;27;20040;-46
2022/12/21 00:28:28;;;;;;;573.72;45.58;;;6.80;99.90;;;;;;5095047;27;20199;-46
2022/12/21 00:30:54;;;;;;;639.70;51.28;;;8.20;99.90;;;;;;5098015;27;20035;-48
2022/12/21 00:33:20;;;;;;;661.45;52.58;;;7.30;99.90;;;;;;5096364;27;20039;-46
2022/12/21 00:35:51;;;;;;;610.35;49.10;;;8.20;99.90;;;;;;5097074;27;20046;-50
2022/12/21 00:38:17;;;;;;;527.92;47.33;;;7.90;99.90;;;;;;5094881;27;20039;-48
2022/12/21 00:40:44;;;;;;;552.00;48.53;;;6.80;99.90;;;;;;5094963;27;20147;-45
2022/12/21 00:43:10;;;;;;;508.85;46.00;;;6.70;99.90;;;;;;5094430;28;20047;-47
2022/12/21 00:45:36;;;;;;;529.40;47.58;;;7.20;99.90;;;;;;5095000;27;20039;-44
2022/12/21 00:48:02;;;;;;;472.73;44.88;;;6.50;99.90;;;;;;5094156;27;20054;-49
2022/12/21 00:50:28;;;;;;;428.02;41.72;;;6.60;99.90;;;;;;5092985;28;20405;-45
2022/12/21 00:52:54;;;;;;;410.73;42.42;;;7.90;99.90;;;;;;5094009;28;20081;-46
2022/12/21 00:55:19;;;;;;;367.75;40.63;;;8.10;99.90;;;;;;5095144;28;20050;-48
2022/12/21 00:57:45;;;;;;;226.15;30.10;;;8.20;99.90;;;;;;5094052;27;20039;-45
2022/12/21 01:00:12;;;;;;;352.83;39.55;;;7.50;99.90;;;;;;5095086;27;20071;-46
2022/12/21 01:02:37;;;;;;;330.92;38.35;;;6.40;99.90;;;;;;5093479;27;20035;-50
2022/12/21 01:05:03;;;;;;;386.80;41.22;;;6.30;99.90;;;;;;5094933;27;20034;-45
2022/12/21 01:07:29;;;;;;;384.73;41.05;;;6.30;99.90;;;;;;5094009;27;20054;-44
2022/12/21 01:09:55;;;;;;;368.38;38.92;;;6.20;99.90;;;;;;5094123;27;20043;-49
2022/12/21 01:12:20;;;;;;;254.93;33.80;;;6.20;99.90;;;;;;5093415;27;20104;-46
2022/12/21 01:14:46;;;;;;;263.00;33.38;;;6.30;99.90;;;;;;5094139;28;20032;-45
2022/12/21 01:17:12;;;;;;;255.48;33.70;;;6.20;99.90;;;;;;5093599;28;20094;-45
2022/12/21 01:19:37;;;;;;;309.88;36.05;;;6.10;99.90;;;;;;5093846;27;20126;-48
2022/12/21 01:22:03;;;;;;;305.67;35.53;;;7.30;99.90;;;;;;5093190;27;24069;-44
2022/12/21 01:24:29;;;;;;;350.60;40.00;;;6.10;99.90;;;;;;5092306;27;20108;-48
2022/12/21 01:26:54;;;;;;;325.80;36.28;;;6.30;99.90;;;;;;5093877;27;20036;-45
2022/12/21 01:29:20;;;;;;;394.05;40.13;;;6.70;99.90;;;;;;5094331;27;20031;-45
2022/12/21 01:31:46;;;;;;;411.88;39.85;;;6.20;99.90;;;;;;5093555;27;20039;-46
2022/12/21 01:34:11;;;;;;;385.25;38.38;;;6.00;99.90;;;;;;5093701;27;20112;-46
2022/12/21 01:36:37;;;;;;;334.00;35.20;;;6.20;99.90;;;;;;5094024;27;20127;-49
2022/12/21 01:39:04;;;;;;;294.88;32.65;;;6.10;99.90;;;;;;5093928;27;20370;-48
2022/12/21 01:41:31;;;;;;;420.45;38.40;;;6.00;99.90;;;;;;5094166;27;20040;-44
2022/12/21 01:44:02;;;;;;;351.23;36.70;;;6.20;99.90;;;;;;5092138;27;20051;-49
2022/12/21 01:46:40;;;;;;;270.07;31.67;;;6.10;99.90;;;;;;5094943;28;20130;-49
2022/12/21 01:49:24;;;;;;;473.23;40.78;;;6.10;99.90;;;;;;5094731;27;20368;-46
2022/12/21 01:51:56;;;;;;;348.63;36.60;;;6.10;99.90;;;;;;5094256;28;20050;-46
2022/12/21 01:54:27;;;;;;;;;;;6.80;99.90;;;;;;5094399;28;20051;-46
2022/12/21 01:56:57;;;;;;;350.98;34.97;;;6.00;99.90;;;;;;5094319;27;19924;-45
2022/12/21 01:59:31;;;;;;;267.42;30.67;;;6.00;99.90;;;;;;5094179;28;20055;-45
2022/12/21 02:02:04;;;;;;;290.85;32.42;;;6.00;99.90;;;;;;5093883;27;20040;-47
2022/12/21 02:04:30;;;;;;;285.88;28.70;;;6.20;99.90;;;;;;5092762;28;20438;-44
2022/12/21 02:06:57;;;;;;;339.13;30.90;;;5.90;99.90;;;;;;5093146;27;20047;-45
2022/12/21 02:09:27;;;;;;;397.48;34.58;;;6.10;99.90;;;;;;5092664;27;20043;-45
2022/12/21 02:11:53;;;;;;;318.00;32.63;;;5.90;99.90;;;;;;5092362;28;20050;-47
2022/12/21 02:14:19;;;;;;;349.45;32.42;;;6.50;99.90;;;;;;5094212;28;22801;-45
2022/12/21 02:17:11;;;;;;;356.80;35.63;;;6.00;99.90;;;;;;5092751;28;20134;-45
2022/12/21 02:20:01;;;;;;;376.35;34.55;;;6.10;99.90;;;;;;5072646;27;20070;-47
2022/12/21 02:23:07;;;;;;;335.63;31.90;;;6.00;99.90;;;;;;5092523;28;20844;-46
2022/12/21 02:26:21;;;;;;;375.38;33.35;;;6.00;99.90;;;;;;5094011;28;20707;-46
2022/12/21 02:29:16;;;;;;;392.90;34.63;;;6.00;99.90;;;;;;5092088;28;20066;-46
2022/12/21 02:32:15;;;;;;;346.23;30.90;;;5.90;99.90;;;;;;5092951;28;20035;-45
2022/12/21 02:34:50;;;;;;;292.98;26.95;;;5.80;99.90;;;;;;5092889;28;20377;-45
2022/12/21 02:37:22;;;;;;;318.00;27.73;;;5.80;99.90;;;;;;5092354;28;20485;-48
2022/12/21 02:40:12;;;;;;;252.15;24.33;;;5.80;99.90;;;;;;5091949;28;20035;-45
2022/12/21 02:45:34;;;;;;;;;;;7.20;99.90;;;;;;5092840;28;20543;-45
2022/12/21 02:48:31;;;;;;;339.08;29.40;;;5.70;99.90;;;;;;5093341;28;19962;-47
2022/12/21 02:51:00;;;;;;;239.52;23.95;;;5.80;99.90;;;;;;5093417;28;20031;-47
2022/12/21 02:53:32;;;;;;;273.08;24.60;;;5.80;99.90;;;;;;5094326;28;20700;-45
2022/12/21 02:55:58;;;;;;;319.27;27.08;;;5.60;99.90;;;;;;5094897;28;20051;-45
2022/12/21 02:58:24;;;;;;;317.45;26.80;;;;;;;;;;5093475;28;20040;-44
2022/12/21 03:01:05;;;;;;;266.25;24.50;;;5.70;99.90;;;;;;5094494;28;20039;-50
2022/12/21 03:03:56;;;;;;;309.90;28.08;;;5.60;99.90;;;;;;5093837;28;20040;-44
2022/12/21 03:06:43;;;;;;;379.20;29.10;;;5.50;99.90;;;;;;5094891;28;20039;-49
2022/12/21 03:09:31;;;;;;;263.73;25.35;;;5.70;99.90;;;;;;5094370;28;20310;-47
2022/12/21 03:12:22;;;;;;;328.85;28.02;;;5.50;99.90;;;;;;5093985;28;20082;-46
2022/12/21 03:15:09;;;;;;;313.17;27.87;;;5.40;99.90;;;;;;5098025;27;20469;-50
2022/12/21 03:18:07;;;;;;;342.00;26.35;;;5.50;99.90;;;;;;5095801;27;20054;-45
2022/12/21 03:21:01;;;;;;;350.45;28.95;;;5.30;99.90;;;;;;5092659;28;20539;-48
2022/12/21 03:23:48;;;;;;;245.05;23.83;;;5.10;99.90;;;;;;5094820;27;20927;-45
2022/12/21 03:26:40;;;;;;;277.50;24.98;;;5.50;99.90;;;;;;5096280;27;20111;-45
2022/12/21 03:29:08;;;;;;;317.85;26.88;;;5.40;99.90;;;;;;5096726;27;20055;-48
2022/12/21 03:31:42;;;;;;;276.73;27.67;;;5.40;99.90;;;;;;5096503;27;20046;-47
2022/12/21 03:34:21;;;;;;;298.75;26.48;;;5.30;99.90;;;;;;5095861;27;20042;-46
2022/12/21 03:36:55;;;;;;;327.92;26.77;;;5.50;99.90;;;;;;5095898;28;20233;-46
2022/12/21 03:39:22;;;;;;;265.90;25.55;;;5.30;99.90;;;;;;5096533;28;20051;-46
2022/12/21 03:41:59;;;;;;;189.35;24.80;;;5.30;99.90;;;;;;5094549;27;20040;-48
2022/12/21 03:44:33;;;;;;;224.90;25.45;;;5.20;99.90;;;;;;5096543;27;20055;-44
2022/12/21 03:47:05;;;;;;;232.85;27.20;;;5.30;99.90;;;;;;5095572;27;20097;-46
2022/12/21 03:49:43;;;;;;;209.63;25.85;;;5.30;99.90;;;;;;5095519;27;20039;-44
2022/12/21 03:52:13;;;;;;;246.32;28.85;;;5.30;99.90;;;;;;5095354;27;20092;-44
2022/12/21 03:54:47;;;;;;;256.02;28.13;;;5.20;99.90;;;;;;5094904;27;20046;-48
2022/12/21 03:57:14;;;;;;;239.65;28.17;;;5.50;99.90;;;;;;5095788;27;20471;-48
2022/12/21 03:59:45;;;;;;;343.20;31.38;;;5.40;99.90;;;;;;5095718;27;20518;-45
2022/12/21 04:02:41;;;;;;;435.30;35.97;;;5.30;99.90;;;;;;5096513;27;20120;-49
2022/12/21 04:05:17;;;;;;;340.98;32.58;;;5.30;99.90;;;;;;5095705;27;20828;-44
2022/12/21 04:07:46;;;;;;;177.07;23.50;;;5.30;99.90;;;;;;5094790;27;20158;-44
2022/12/21 04:10:14;;;;;;;264.15;27.48;;;5.50;99.90;;;;;;5094746;28;20814;-47
2022/12/21 04:12:40;;;;;;;256.55;26.48;;;5.40;99.90;;;;;;5096212;27;20044;-44
2022/12/21 04:15:16;;;;;;;222.73;24.50;;;5.40;99.90;;;;;;5095873;27;20077;-46
2022/12/21 04:17:45;;;;;;;179.90;22.23;;;5.20;99.90;;;;;;5096134;27;21542;-45
2022/12/21 04:20:16;;;;;;;183.15;23.38;;;5.40;99.90;;;;;;5097220;27;20040;-45
2022/12/21 04:28:28;;;;;;;221.57;23.65;;;5.30;99.90;;;;;;5096294;27;20121;-46
2022/12/21 04:30:54;;;;;;;253.05;26.75;;;;;;;;;;5096548;28;20040;-47
2022/12/21 04:33:21;;;;;;;222.05;23.67;;;5.30;99.90;;;;;;5095783;27;20040;-45
2022/12/21 04:38:35;;;;;;;311.88;28.65;;;5.20;99.90;;;;;;5094826;28;20054;-47
2022/12/21 04:41:02;;;;;;;203.07;22.77;;;5.10;99.90;;;;;;5094098;27;20298;-46
2022/12/21 04:43:28;;;;;;;274.10;26.23;;;;;;;;;;5094216;28;20536;-49
2022/12/21 04:46:02;;;;;;;259.17;26.80;;;6.20;99.90;;;;;;5093972;28;20043;-48
2022/12/21 04:48:28;;;;;;;318.90;28.20;;;;;;;;;;5092782;27;20044;-45
2022/12/21 04:50:54;;;;;;;302.92;28.30;;;;;;;;;;5093620;28;20103;-45
2022/12/21 04:53:21;;;;;;;287.48;27.70;;;;;;;;;;5094627;27;20058;-44
2022/12/21 04:55:47;;;;;;;257.20;26.83;;;5.20;99.90;;;;;;5094853;27;20164;-44
2022/12/21 04:58:13;;;;;;;259.63;26.58;;;5.30;99.90;;;;;;5094066;27;20255;-47
2022/12/21 05:00:39;;;;;;;328.30;28.52;;;;;;;;;;5094583;27;20035;-47
2022/12/21 05:03:05;;;;;;;319.42;26.83;;;5.30;99.90;;;;;;5094446;27;20040;-45
2022/12/21 05:05:31;;;;;;;287.88;26.35;;;;;;;;;;5094949;27;20040;-47
2022/12/21 05:07:56;;;;;;;242.38;24.15;;;5.40;99.90;;;;;;5094615;28;20075;-45
2022/12/21 05:10:23;;;;;;;231.95;24.15;;;;;;;;;;5094225;27;20127;-43
2022/12/21 05:12:49;;;;;;;320.83;28.13;;;;;;;;;;5093995;27;20116;-45
2022/12/21 05:15:16;;;;;;;308.98;29.30;;;5.40;99.90;;;;;;5094734;28;20138;-45
2022/12/21 05:17:43;;;;;;;295.58;27.38;;;5.20;99.90;;;;;;5094407;27;20070;-45
2022/12/21 05:20:08;;;;;;;307.23;27.02;;;5.20;99.90;;;;;;5094936;27;20043;-45
2022/12/21 05:22:34;;;;;;;309.85;27.15;;;5.20;99.90;;;;;;5095735;27;20094;-44
2022/12/21 05:25:00;;;;;;;259.48;25.73;;;5.30;99.90;;;;;;5094085;28;20088;-43
2022/12/21 05:27:25;;;;;;;288.80;28.08;;;5.30;99.90;;;;;;5095668;27;20373;-46
2022/12/21 05:29:51;;;;;;;255.15;25.55;;;5.20;99.90;;;;;;5096662;27;20051;-44
2022/12/21 05:32:17;;;;;;;307.80;26.90;;;5.20;99.90;;;;;;5095741;28;20035;-46
2022/12/21 05:34:43;;;;;;;279.95;26.13;;;5.30;99.90;;;;;;5095164;27;20122;-45
2022/12/21 05:37:09;;;;;;;289.80;28.55;;;5.20;99.90;;;;;;5095954;27;20101;-44
2022/12/21 05:39:35;;;;;;;242.63;25.42;;;5.30;99.90;;;;;;5095171;28;20040;-44
2022/12/21 05:42:04;;;;;;;299.90;26.63;;;5.30;99.90;;;;;;5093889;28;20047;-46
2022/12/21 05:44:30;;;;;;;348.45;28.98;;;;;;;;;;5092960;27;20043;-44
2022/12/21 05:46:55;;;;;;;264.33;26.00;;;5.10;99.90;;;;;;5094391;27;20051;-44
2022/12/21 05:49:21;;;;;;;267.50;25.38;;;5.30;99.90;;;;;;5094046;27;20508;-44
2022/12/21 05:51:48;;;;;;;290.25;27.48;;;;;;;;;;5093098;28;20071;-46
2022/12/21 05:54:15;;;;;;;197.23;23.90;;;5.00;99.90;;;;;;5093598;27;20039;-47
2022/12/21 05:56:41;;;;;;;291.77;26.58;;;5.10;99.90;;;;;;5092814;28;20693;-45
2022/12/21 05:59:07;;;;;;;278.17;28.13;;;5.20;99.90;;;;;;5093620;27;20043;-49
2022/12/21 06:01:33;;;;;;;271.40;26.60;;;5.30;99.90;;;;;;5093302;27;20537;-47
2022/12/21 06:03:59;;;;;;;312.30;28.25;;;5.10;99.90;;;;;;5092920;28;20043;-45
2022/12/21 06:06:25;;;;;;;313.00;27.45;;;5.20;99.90;;;;;;5093116;28;20036;-44
2022/12/21 06:08:51;;;;;;;328.50;28.98;;;5.20;99.90;;;;;;5093425;28;20118;-45
2022/12/21 06:11:23;;;;;;;287.40;27.65;;;5.20;99.90;;;;;;5093245;28;20043;-45
2022/12/21 06:13:50;;;;;;;321.40;28.25;;;5.20;99.90;;;;;;5093524;28;20040;-44
2022/12/21 06:16:19;;;;;;;358.27;30.83;;;5.10;99.90;;;;;;5093052;27;20199;-44
2022/12/21 06:18:45;;;;;;;252.88;24.88;;;5.10;99.90;;;;;;5092200;28;20040;-48
2022/12/21 06:21:13;;;;;;;327.30;31.20;;;5.20;99.90;;;;;;5090521;28;20035;-45
2022/12/21 06:23:40;;;;;;;280.60;27.50;;;5.30;99.90;;;;;;5092189;27;20426;-46
2022/12/21 06:26:08;;;;;;;225.48;26.35;;;5.40;99.90;;;;;;5091449;28;20043;-44
2022/12/21 06:28:34;;;;;;;318.30;29.52;;;;;;;;;;5092966;28;20052;-47
2022/12/21 06:31:05;;;;;;;383.73;33.45;;;5.30;99.90;;;;;;5093197;28;20035;-45
2022/12/21 06:33:32;;;;;;;411.10;35.30;;;5.20;99.90;;;;;;5093287;28;20051;-47
2022/12/21 06:35:58;;;;;;;404.42;35.25;;;;;;;;;;5094283;28;20101;-45
2022/12/21 06:38:25;;;;;;;457.23;38.33;;;5.30;99.90;;;;;;5093997;28;21395;-46
2022/12/21 06:40:56;;;;;;;254.38;26.88;;;5.00;99.90;;;;;;5094088;28;20035;-44
2022/12/21 06:43:23;;;;;;;321.75;32.15;;;;;;;;;;5093880;28;20046;-43
2022/12/21 06:45:53;;;;;;;327.08;34.10;;;5.30;99.90;;;;;;5094188;28;20080;-46
2022/12/21 06:48:19;;;;;;;353.40;31.27;;;5.20;99.90;;;;;;5096793;27;20063;-48
2022/12/21 06:50:45;;;;;;;298.33;30.83;;;;;;;;;;5097907;27;20148;-45
2022/12/21 06:53:11;;;;;;;374.83;33.90;;;5.10;99.90;;;;;;5097351;27;20110;-44
2022/12/21 06:55:37;;;;;;;339.73;30.98;;;;;;;;;;5098373;27;20083;-44
2022/12/21 06:58:02;;;;;;;334.13;30.67;;;5.10;99.90;;;;;;5097886;27;20613;-44
2022/12/21 07:00:28;;;;;;;316.23;31.77;;;5.10;99.90;;;;;;5098346;27;20043;-43
2022/12/21 07:02:55;;;;;;;315.00;31.80;;;;;;;;;;5098353;27;20047;-44
2022/12/21 07:05:21;;;;;;;276.67;30.45;;;5.30;99.90;;;;;;5097057;28;20084;-48
2022/12/21 07:07:46;;;;;;;320.83;32.10;;;5.20;99.90;;;;;;5097421;27;20039;-46
2022/12/21 07:10:12;;;;;;;242.30;28.27;;;5.20;99.90;;;;;;5097136;27;20035;-44
2022/12/21 07:12:38;;;;;;;276.10;29.40;;;;;;;;;;5096747;27;20059;-44
2022/12/21 07:15:04;;;;;;;340.40;34.05;;;5.30;99.90;;;;;;5096461;27;20067;-44
2022/12/21 07:17:30;;;;;;;305.17;32.60;;;;;;;;;;5095328;27;20046;-48
2022/12/21 07:19:56;;;;;;;268.45;32.35;;;;;;;;;;5096669;27;20048;-46
2022/12/21 07:22:23;;;;;;;265.23;31.73;;;;;;;;;;5096602;28;20277;-46
2022/12/21 07:24:49;;;;;;;258.73;30.95;;;5.20;99.90;;;;;;5097072;27;20048;-47
2022/12/21 07:27:15;;;;;;;357.83;35.33;;;;;;;;;;5095683;27;20109;-44
2022/12/21 07:29:41;;;;;;;275.88;32.13;;;;;;;;;;5095411;28;20043;-43
2022/12/21 07:32:08;;;;;;;332.48;36.78;;;;;;;;;;5097909;27;20854;-46
2022/12/21 07:34:34;;;;;;;346.75;35.35;;;5.30;99.90;;;;;;5096297;27;20039;-46
2022/12/21 07:37:00;;;;;;;352.98;36.33;;;;;;;;;;5097227;27;20031;-45
2022/12/21 07:39:25;;;;;;;297.77;35.15;;;5.20;99.90;;;;;;5095876;27;20459;-44
2022/12/21 07:41:51;;;;;;;270.90;33.35;;;;;;;;;;5097560;27;20044;-45
2022/12/21 07:44:18;;;;;;;314.63;34.95;;;;;;;;;;5097524;27;20286;-45
2022/12/21 07:46:44;;;;;;;287.20;37.00;;;;;;;;;;5098045;27;20032;-45
2022/12/21 07:49:09;;;;;;;252.35;33.78;;;5.20;99.90;;;;;;5097305;28;20505;-43
2022/12/21 07:51:35;;;;;;;269.90;35.90;;;5.40;99.90;;;;;;5097640;27;20114;-43
2022/12/21 07:54:01;;;;;;;277.02;32.55;;;;;;;;;;5097769;27;20048;-44
2022/12/21 07:56:27;;;;;;;305.02;36.40;;;;;;;;;;5096183;28;20130;-46
2022/12/21 07:58:53;;;;;;;340.38;40.15;;;5.20;99.90;;;;;;5096134;27;20032;-44
2022/12/21 08:01:19;;;;;;;340.17;40.95;;;;;;;;;;5096103;28;20042;-46
2022/12/21 08:03:46;;;;;;;240.48;35.35;;;5.40;99.90;;;;;;5095815;28;20554;-44
2022/12/21 08:06:13;;;;;;;252.30;38.67;;;5.20;99.90;;;;;;5095965;28;20059;-44
2022/12/21 08:08:40;;;;;;;252.52;36.00;;;;;;;;;;5096489;28;20051;-48
2022/12/21 08:11:11;;;;;;;295.73;39.22;;;5.10;99.90;;;;;;5096189;28;20055;-44
2022/12/21 08:13:37;;;;;;;338.23;41.40;;;;;;;;;;5095320;27;20054;-44
2022/12/21 08:16:05;;;;;;;229.63;35.55;;;5.20;99.90;;;;;;5095230;28;20078;-46
2022/12/21 08:18:32;;;;;;;263.08;37.97;;;5.10;99.90;;;;;;5094532;28;20042;-43
2022/12/21 08:20:58;;;;;;;282.20;39.78;;;5.20;99.90;;;;;;5094697;28;20239;-43
2022/12/21 08:23:24;;;;;;;284.50;40.65;;;;;;;;;;5095379;28;20051;-44
2022/12/21 08:25:51;;;;;;;237.65;37.75;;;5.20;99.90;;;;;;5094329;27;20547;-44
2022/12/21 08:28:17;;;;;;;207.30;35.00;;;;;;;;;;5108583;27;20044;-44
2022/12/21 08:30:43;;;;;;;239.85;37.55;;;5.20;99.90;;;;;;5094603;28;20052;-45
2022/12/21 08:33:09;;;;;;;231.80;39.25;;;;;;;;;;5093799;28;20556;-45
2022/12/21 08:35:36;;;;;;;166.30;34.17;;;5.30;99.90;;;;;;5094463;28;20097;-44
2022/12/21 08:38:02;;;;;;;201.57;35.95;;;5.20;99.90;;;;;;5094286;28;20510;-46
2022/12/21 08:40:28;;;;;;;237.82;39.72;;;;;;;;;;5093997;28;20051;-45
2022/12/21 08:42:54;;;;;;;246.63;38.40;;;;;;;;;;5092913;28;20088;-43
2022/12/21 08:45:20;;;;;;;219.55;38.22;;;;;;;;;;5093700;28;20052;-45
2022/12/21 08:47:48;;;;;;;172.15;33.45;;;5.50;99.90;;;;;;5094037;27;20143;-45
2022/12/21 08:50:14;;;;;;;320.08;45.17;;;;;;;;;;5093475;28;20089;-48
2022/12/21 08:52:40;;;;;;;227.15;40.30;;;;;;;;;;5093106;28;20063;-44
2022/12/21 08:55:07;;;;;;;219.10;40.17;;;;;;;;;;5052220;27;1236633;-44
2022/12/21 08:57:32;;;;;;;142.50;33.65;;;5.70;99.90;;;;;;5094944;27;20044;-48
2022/12/21 08:59:58;;;;;;;187.93;39.25;;;5.70;99.90;;;;;;5094319;27;20089;-45
2022/12/21 09:02:24;;;;;;;185.50;36.95;;;;;;;;;;5094590;27;20044;-44
2022/12/21 09:04:50;;;;;;;211.07;42.28;;;6.00;99.90;;;;;;5094214;27;20499;-44
2022/12/21 09:07:16;;;;;;;143.45;37.55;;;;;;;;;;5095050;28;20122;-45
2022/12/21 09:09:43;;;;;;;135.73;34.75;;;5.90;99.90;;;;;;5094113;27;20070;-44
2022/12/21 09:12:09;;;;;;;142.20;38.63;;;5.90;99.90;;;;;;5093175;27;20667;-48
2022/12/21 09:14:35;;;;;;;147.00;39.92;;;6.00;99.90;;;;;;5093850;28;20043;-46
2022/12/21 09:17:00;;;;;;;137.88;40.05;;;5.90;99.90;;;;;;5093932;28;20035;-45
2022/12/21 09:19:26;;;;;;;112.63;35.50;;;6.10;99.90;;;;;;5095680;28;20054;-45
2022/12/21 09:21:52;;;;;;;145.05;38.63;;;6.00;99.90;;;;;;5094545;27;20031;-44
2022/12/21 09:24:17;;;;;;;130.32;38.70;;;6.10;99.90;;;;;;5095658;27;20050;-47
2022/12/21 09:26:43;;;;;;;120.50;36.90;;;6.10;99.90;;;;;;5095070;28;20523;-46
2022/12/21 09:29:10;;;;;;;130.10;37.88;;;6.10;99.90;;;;;;5096156;27;20035;-44
2022/12/21 09:31:36;;;;;;;124.72;37.83;;;6.10;99.90;;;;;;5096039;27;20040;-45
2022/12/21 09:34:01;;;;;;;108.05;35.30;;;6.20;99.90;;;;;;5095457;28;20042;-43
2022/12/21 09:36:27;;;;;;;115.88;36.28;;;6.10;99.90;;;;;;5095175;28;20044;-45
2022/12/21 09:38:54;;;;;;;102.88;35.00;;;6.00;99.90;;;;;;5095679;27;20051;-43
2022/12/21 09:41:29;;;;;;;118.57;36.20;;;6.10;99.90;;;;;;5095003;28;20092;-43
2022/12/21 09:44:13;;;;;;;130.65;35.83;;;5.90;99.90;;;;;;5094907;28;20102;-43
2022/12/21 09:46:42;;;;;;;99.65;32.45;;;6.00;99.90;;;;;;5093656;28;20516;-43
2022/12/21 09:49:16;;;;;;;131.25;38.45;;;6.00;99.90;;;;;;5093868;27;20046;-49
2022/12/21 09:51:51;;;;;;;113.55;34.53;;;6.10;99.90;;;;;;5094100;27;20788;-45
2022/12/21 09:54:22;;;;;;;152.15;39.47;;;6.00;99.90;;;;;;5093557;27;20059;-48
2022/12/21 09:56:52;;;;;;;138.07;38.50;;;6.20;99.90;;;;;;5093702;27;20051;-44
2022/12/21 09:59:20;;;;;;;124.28;36.45;;;6.30;99.90;;;;;;5092714;28;20159;-45
2022/12/21 10:02:16;;;;;;;127.03;39.20;;;6.30;99.90;;;;;;5093721;28;20474;-44
2022/12/21 10:04:54;;;;;;;136.43;40.13;;;6.40;99.90;;;;;;5092350;28;20059;-44
2022/12/21 10:07:57;;;;;;;135.63;40.67;;;6.30;99.90;;;;;;5094529;27;20039;-47
2022/12/21 10:10:31;;;;;;;104.80;35.97;;;6.30;99.90;;;;;;5093441;27;20474;-45
2022/12/21 10:13:03;;;;;;;105.70;36.35;;;6.50;99.90;;;;;;5093292;28;20050;-44
2022/12/21 10:15:46;;;;;;;121.85;36.17;;;6.50;99.90;;;;;;5093099;28;20103;-47
2022/12/21 10:18:29;;;;;;;113.30;36.75;;;6.60;99.90;;;;;;5092674;28;20434;-44
2022/12/21 10:20:56;;;;;;;122.57;37.58;;;;;;;;;;5092586;28;20046;-47
2022/12/21 10:23:32;;;;;;;112.38;37.55;;;6.40;99.90;;;;;;5091928;27;20069;-44
2022/12/21 10:26:02;;;;;;;114.97;37.67;;;6.80;99.90;;;;;;5092371;28;20444;-44
2022/12/21 10:29:03;;;;;;;104.18;35.45;;;6.60;99.90;;;;;;5091061;28;20534;-48
2022/12/21 10:31:53;;;;;;;101.38;36.08;;;6.70;99.90;;;;;;5093829;28;20045;-46
2022/12/21 10:34:24;;;;;;;99.53;34.25;;;6.70;99.90;;;;;;5094795;28;20044;-45
2022/12/21 10:36:57;;;;;;;86.70;28.50;;;6.70;99.90;;;;;;5093582;28;20412;-45
2022/12/21 10:39:23;;;;;;;103.63;33.67;;;6.80;99.90;;;;;;5094171;28;20047;-45
2022/12/21 10:42:02;;;;;;;87.10;30.80;;;6.70;99.90;;;;;;5093177;28;20703;-45
2022/12/21 10:44:27;;;;;;;89.75;32.33;;;6.70;99.90;;;;;;5093455;28;20051;-43
2022/12/21 10:46:53;;;;;;;76.38;29.42;;;6.80;99.90;;;;;;5093590;28;20537;-45
2022/12/21 10:49:36;;;;;;;85.07;29.80;;;7.00;99.90;;;;;;5093150;28;20204;-44
2022/12/21 10:52:36;;;;;;;69.32;27.00;;;6.90;99.90;;;;;;5094238;28;20023;-44
2022/12/21 10:55:26;;;;;;;71.45;29.30;;;7.00;99.90;;;;;;5092861;28;20055;-46
2022/12/21 10:58:02;;;;;;;76.07;29.77;;;7.00;99.90;;;;;;5093309;28;20138;-49
2022/12/21 11:00:33;;;;;;;80.30;29.17;;;7.10;99.90;;;;;;5092412;27;20503;-45
2022/12/21 11:03:02;;;;;;;76.68;28.00;;;7.30;99.90;;;;;;5094128;28;20039;-45
2022/12/21 11:05:29;;;;;;;70.80;27.02;;;7.10;99.90;;;;;;5092145;28;20104;-44
2022/12/21 11:08:33;;;;;;;78.07;28.05;;;7.20;99.90;;;;;;5091627;28;20040;-44
2022/12/21 11:11:01;;;;;;;64.72;25.17;;;7.40;99.90;;;;;;5084030;28;20463;-47
2022/12/21 11:13:31;;;;;;;68.20;26.40;;;7.20;99.90;;;;;;5092060;28;20843;-43
2022/12/21 11:16:00;;;;;;;68.78;25.40;;;7.30;99.90;;;;;;5091629;28;20039;-46
2022/12/21 11:18:49;;;;;;;63.88;24.77;;;7.10;99.90;;;;;;5092337;28;20534;-45
2022/12/21 11:21:42;;;;;;;61.20;22.42;;;7.30;99.90;;;;;;5092356;28;20043;-44
2022/12/21 11:24:23;;;;;;;65.97;25.48;;;7.40;99.90;;;;;;5091516;28;20039;-49
2022/12/21 11:26:58;;;;;;;66.18;24.67;;;7.50;99.90;;;;;;5092013;28;20047;-46
2022/12/21 11:29:29;;;;;;;60.08;23.20;;;7.60;99.90;;;;;;5091508;28;20689;-44
2022/12/21 11:32:02;;;;;;;61.33;23.48;;;7.60;99.90;;;;;;5092084;28;20067;-45
2022/12/21 11:34:51;;;;;;;56.70;23.15;;;7.60;99.90;;;;;;5093435;28;20048;-45
2022/12/21 11:37:27;;;;;;;65.38;23.17;;;7.80;99.90;;;;;;5095472;27;20097;-46
2022/12/21 11:39:56;;;;;;;56.55;22.25;;;7.70;99.90;;;;;;5095243;27;20035;-47
2022/12/21 11:42:23;;;;;;;57.22;22.67;;;7.40;99.90;;;;;;5094288;27;20043;-46
2022/12/21 11:44:51;;;;;;;57.60;20.35;;;7.70;99.90;;;;;;5095087;27;20044;-45
2022/12/21 11:47:39;;;;;;;50.55;19.75;;;7.70;99.90;;;;;;5095553;27;20039;-45
2022/12/21 11:50:39;;;;;;;52.55;20.25;;;7.70;99.90;;;;;;5095211;27;20039;-45
2022/12/21 11:53:39;;;;;;;50.38;19.75;;;7.70;99.90;;;;;;5096142;27;20579;-44
2022/12/21 11:56:17;;;;;;;39.47;17.85;;;7.60;99.90;;;;;;5060174;28;20050;-46
2022/12/21 11:59:03;;;;;;;42.47;16.85;;;7.80;99.90;;;;;;5094952;28;20403;-44
2022/12/21 12:01:35;;;;;;;36.75;16.23;;;7.90;99.90;;;;;;5096059;27;20098;-43
2022/12/21 12:04:26;;;;;;;51.90;16.97;;;7.80;99.90;;;;;;5097308;27;20031;-44
2022/12/21 12:07:16;;;;;;;39.00;16.27;;;7.80;99.90;;;;;;5090472;27;20074;-49
2022/12/21 12:10:00;;;;;;;38.35;16.23;;;7.90;99.90;;;;;;5096874;28;20050;-44
2022/12/21 12:12:35;;;;;;;37.47;15.35;;;8.50;99.90;;;;;;5095770;27;20039;-46
2022/12/21 12:15:34;;;;;;;37.65;15.55;;;8.10;99.90;;;;;;5096754;28;20039;-49
2022/12/21 12:18:00;;;;;;;35.88;14.52;;;8.00;99.90;;;;;;5095301;27;20047;-47
2022/12/21 12:20:50;;;;;;;33.47;15.02;;;7.90;99.90;;;;;;5096408;27;20047;-45
2022/12/21 12:23:51;;;;;;;35.72;15.02;;;9.10;99.90;;;;;;5094904;27;20052;-44
2022/12/21 12:26:26;;;;;;;34.75;14.13;;;8.00;99.90;;;;;;5030957;28;20041;-47
2022/12/21 12:29:01;;;;;;;35.17;13.27;;;9.60;99.90;;;;;;5085617;27;20055;-47
2022/12/21 12:31:42;;;;;;;37.85;15.57;;;8.00;99.90;;;;;;5094247;27;21149;-47
2022/12/21 12:34:28;;;;;;;37.60;14.40;;;7.90;99.90;;;;;;5094533;28;20044;-44
2022/12/21 12:37:04;;;;;;;38.35;15.27;;;8.00;99.90;;;;;;5094795;28;20047;-44
2022/12/21 12:40:02;;;;;;;29.48;13.35;;;8.10;99.90;;;;;;5095830;27;20071;-45
2022/12/21 12:42:43;;;;;;;36.42;14.55;;;8.10;99.90;;;;;;5092343;27;21068;-45
2022/12/21 12:45:36;;;;;;;34.30;14.18;;;8.80;99.90;;;;;;5093926;28;20495;-44
2022/12/21 12:48:23;;;;;;;33.17;15.57;;;8.00;99.90;;;;;;5094326;27;20369;-44
2022/12/21 12:51:22;;;;;;;37.03;16.13;;;8.10;99.90;;;;;;5094820;27;20040;-46
2022/12/21 12:53:59;;;;;;;36.47;15.88;;;8.10;99.90;;;;;;5093909;27;20112;-44
2022/12/21 12:56:37;;;;;;;40.08;17.98;;;8.10;99.90;;;;;;5095334;27;20164;-44
2022/12/21 12:59:21;;;;;;;34.83;15.95;;;8.00;99.90;;;;;;5093706;27;20185;-46
2022/12/21 13:02:11;;;;;;;39.00;17.42;;;8.10;99.90;;;;;;5094089;28;20490;-45
2022/12/21 13:04:46;;;;;;;40.25;17.25;;;8.00;99.90;;;;;;5094132;27;21961;-44
2022/12/21 13:07:48;;;;;;;40.22;18.20;;;8.20;99.90;;;;;;5094204;27;20043;-44
2022/12/21 13:10:26;;;;;;;39.40;17.48;;;8.10;99.90;;;;;;5083126;27;20056;-44
2022/12/21 13:13:16;;;;;;;37.88;18.38;;;8.10;99.90;;;;;;5093415;27;20043;-46
2022/12/21 13:15:48;;;;;;;38.80;18.52;;;8.00;99.90;;;;;;5091623;27;20048;-44
2022/12/21 13:18:24;;;;;;;39.13;18.65;;;8.30;99.90;;;;;;5094462;27;20048;-43
2022/12/21 13:20:53;;;;;;;40.65;20.25;;;8.10;99.90;;;;;;5094642;27;20043;-45